sensor_id;sensor_type;location;lat;lon;timestamp;P1;durP1;ratioP1;P2;durP2;ratioP2
17658;SDS011;8948;51.534;8.262;2023-06-14T00:03:36;7.00;;;3.35;;
17658;SDS011;8948;51.534;8.262;2023-06-14T00:08:36;6.75;;;3.08;;
17658;SDS011;8948;51.534;8.262;2023-06-14T00:13:37;4.70;;;3.10;;
17658;SDS011;8948;51.534;8.262;2023-06-14T00:18:38;5.50;;;3.42;;
17658;SDS011;8948;51.534;8.262;2023-06-14T00:23:38;8.55;;;3.33;;
17658;SDS011;8948;51.534;8.262;2023-06-14T00:28:39;6.93;;;3.00;;
17658;SDS011;8948;51.534;8.262;2023-06-14T00:33:40;4.28;;;2.70;;
17658;SDS011;8948;51.534;8.262;2023-06-14T00:38:41;8.30;;;3.30;;
17658;SDS011;8948;51.534;8.262;2023-06-14T00:43:41;7.18;;;2.97;;
17658;SDS011;8948;51.534;8.262;2023-06-14T00:48:42;6.90;;;2.80;;
17658;SDS011;8948;51.534;8.262;2023-06-14T00:53:43;8.75;;;3.50;;
17658;SDS011;8948;51.534;8.262;2023-06-14T00:58:46;7.13;;;3.45;;
17658;SDS011;8948;51.534;8.262;2023-06-14T01:03:47;6.70;;;3.20;;
17658;SDS011;8948;51.534;8.262;2023-06-14T01:08:50;4.45;;;3.10;;
17658;SDS011;8948;51.534;8.262;2023-06-14T01:13:57;9.35;;;2.85;;
17658;SDS011;8948;51.534;8.262;2023-06-14T01:19:01;6.28;;;3.15;;
17658;SDS011;8948;51.534;8.262;2023-06-14T01:24:03;8.18;;;3.20;;
17658;SDS011;8948;51.534;8.262;2023-06-14T01:29:03;4.50;;;2.95;;
17658;SDS011;8948;51.534;8.262;2023-06-14T01:34:04;5.45;;;2.90;;
17658;SDS011;8948;51.534;8.262;2023-06-14T01:39:05;5.50;;;3.30;;
17658;SDS011;8948;51.534;8.262;2023-06-14T01:44:07;7.07;;;3.28;;
17658;SDS011;8948;51.534;8.262;2023-06-14T01:49:08;13.65;;;3.33;;
17658;SDS011;8948;51.534;8.262;2023-06-14T01:54:08;4.95;;;2.88;;
17658;SDS011;8948;51.534;8.262;2023-06-14T01:59:09;4.97;;;2.95;;
17658;SDS011;8948;51.534;8.262;2023-06-14T02:04:10;6.32;;;2.85;;
17658;SDS011;8948;51.534;8.262;2023-06-14T02:09:10;8.43;;;3.05;;
17658;SDS011;8948;51.534;8.262;2023-06-14T02:14:11;7.22;;;3.40;;
17658;SDS011;8948;51.534;8.262;2023-06-14T02:19:12;8.27;;;2.80;;
17658;SDS011;8948;51.534;8.262;2023-06-14T02:24:12;9.07;;;3.53;;
17658;SDS011;8948;51.534;8.262;2023-06-14T02:29:13;6.93;;;3.05;;
17658;SDS011;8948;51.534;8.262;2023-06-14T02:34:15;6.07;;;3.50;;
17658;SDS011;8948;51.534;8.262;2023-06-14T02:39:17;7.13;;;2.92;;
17658;SDS011;8948;51.534;8.262;2023-06-14T02:44:23;7.80;;;3.10;;
17658;SDS011;8948;51.534;8.262;2023-06-14T02:49:28;7.70;;;3.72;;
17658;SDS011;8948;51.534;8.262;2023-06-14T02:54:29;6.90;;;3.00;;
17658;SDS011;8948;51.534;8.262;2023-06-14T02:59:30;5.07;;;3.00;;
17658;SDS011;8948;51.534;8.262;2023-06-14T03:04:30;9.27;;;3.53;;
17658;SDS011;8948;51.534;8.262;2023-06-14T03:09:37;8.68;;;3.47;;
17658;SDS011;8948;51.534;8.262;2023-06-14T03:14:38;7.00;;;2.97;;
17658;SDS011;8948;51.534;8.262;2023-06-14T03:19:38;3.92;;;2.67;;
17658;SDS011;8948;51.534;8.262;2023-06-14T03:24:41;3.88;;;2.97;;
17658;SDS011;8948;51.534;8.262;2023-06-14T03:29:42;5.22;;;3.30;;
17658;SDS011;8948;51.534;8.262;2023-06-14T03:34:43;19.88;;;3.00;;
17658;SDS011;8948;51.534;8.262;2023-06-14T03:39:44;6.47;;;2.85;;
17658;SDS011;8948;51.534;8.262;2023-06-14T03:44:47;9.00;;;3.15;;
17658;SDS011;8948;51.534;8.262;2023-06-14T03:49:48;3.22;;;2.47;;
17658;SDS011;8948;51.534;8.262;2023-06-14T03:54:48;4.07;;;2.47;;
17658;SDS011;8948;51.534;8.262;2023-06-14T03:59:49;6.97;;;3.10;;
17658;SDS011;8948;51.534;8.262;2023-06-14T04:04:50;6.43;;;3.20;;
17658;SDS011;8948;51.534;8.262;2023-06-14T04:09:51;7.20;;;2.80;;
17658;SDS011;8948;51.534;8.262;2023-06-14T04:14:52;8.15;;;2.90;;
17658;SDS011;8948;51.534;8.262;2023-06-14T04:19:52;14.38;;;3.05;;
17658;SDS011;8948;51.534;8.262;2023-06-14T04:24:53;5.72;;;2.85;;
17658;SDS011;8948;51.534;8.262;2023-06-14T04:29:56;6.20;;;2.50;;
17658;SDS011;8948;51.534;8.262;2023-06-14T04:34:57;6.28;;;2.80;;
17658;SDS011;8948;51.534;8.262;2023-06-14T04:39:59;3.17;;;2.53;;
17658;SDS011;8948;51.534;8.262;2023-06-14T04:44:59;4.40;;;3.05;;
17658;SDS011;8948;51.534;8.262;2023-06-14T04:50:00;10.55;;;2.65;;
17658;SDS011;8948;51.534;8.262;2023-06-14T04:55:03;9.32;;;3.00;;
17658;SDS011;8948;51.534;8.262;2023-06-14T05:00:04;7.80;;;2.90;;
17658;SDS011;8948;51.534;8.262;2023-06-14T05:05:07;7.07;;;2.78;;
17658;SDS011;8948;51.534;8.262;2023-06-14T05:10:08;5.15;;;2.80;;
17658;SDS011;8948;51.534;8.262;2023-06-14T05:15:10;6.00;;;3.03;;
17658;SDS011;8948;51.534;8.262;2023-06-14T05:20:10;5.50;;;2.95;;
17658;SDS011;8948;51.534;8.262;2023-06-14T05:25:11;8.25;;;2.78;;
17658;SDS011;8948;51.534;8.262;2023-06-14T05:30:11;5.53;;;3.00;;
17658;SDS011;8948;51.534;8.262;2023-06-14T05:35:13;11.82;;;2.60;;
17658;SDS011;8948;51.534;8.262;2023-06-14T05:40:14;4.22;;;2.60;;
17658;SDS011;8948;51.534;8.262;2023-06-14T05:45:17;5.50;;;2.85;;
17658;SDS011;8948;51.534;8.262;2023-06-14T05:50:17;7.13;;;2.72;;
17658;SDS011;8948;51.534;8.262;2023-06-14T05:55:18;4.55;;;2.58;;
17658;SDS011;8948;51.534;8.262;2023-06-14T06:00:18;7.28;;;2.35;;
17658;SDS011;8948;51.534;8.262;2023-06-14T06:05:20;6.45;;;2.25;;
17658;SDS011;8948;51.534;8.262;2023-06-14T06:10:20;4.45;;;2.40;;
17658;SDS011;8948;51.534;8.262;2023-06-14T06:15:21;4.05;;;2.42;;
17658;SDS011;8948;51.534;8.262;2023-06-14T06:20:22;2.47;;;2.08;;
17658;SDS011;8948;51.534;8.262;2023-06-14T06:25:28;6.65;;;2.42;;
17658;SDS011;8948;51.534;8.262;2023-06-14T06:30:29;6.10;;;2.38;;
17658;SDS011;8948;51.534;8.262;2023-06-14T06:35:29;4.38;;;2.47;;
17658;SDS011;8948;51.534;8.262;2023-06-14T06:40:30;12.68;;;2.58;;
17658;SDS011;8948;51.534;8.262;2023-06-14T06:45:31;3.10;;;2.35;;
17658;SDS011;8948;51.534;8.262;2023-06-14T06:50:33;2.70;;;2.03;;
17658;SDS011;8948;51.534;8.262;2023-06-14T06:55:33;4.03;;;2.25;;
17658;SDS011;8948;51.534;8.262;2023-06-14T07:00:34;2.80;;;1.70;;
17658;SDS011;8948;51.534;8.262;2023-06-14T07:05:34;4.43;;;1.77;;
17658;SDS011;8948;51.534;8.262;2023-06-14T07:10:35;3.42;;;1.88;;
17658;SDS011;8948;51.534;8.262;2023-06-14T07:15:37;8.90;;;2.13;;
17658;SDS011;8948;51.534;8.262;2023-06-14T07:20:38;3.33;;;1.77;;
17658;SDS011;8948;51.534;8.262;2023-06-14T07:25:40;2.42;;;1.80;;
17658;SDS011;8948;51.534;8.262;2023-06-14T07:30:40;5.68;;;1.92;;
17658;SDS011;8948;51.534;8.262;2023-06-14T07:35:41;4.28;;;1.48;;
17658;SDS011;8948;51.534;8.262;2023-06-14T07:40:41;5.18;;;1.80;;
17658;SDS011;8948;51.534;8.262;2023-06-14T07:45:42;2.60;;;1.85;;
17658;SDS011;8948;51.534;8.262;2023-06-14T07:50:42;2.75;;;1.40;;
17658;SDS011;8948;51.534;8.262;2023-06-14T07:55:43;3.10;;;1.75;;
17658;SDS011;8948;51.534;8.262;2023-06-14T08:00:44;4.63;;;2.22;;
17658;SDS011;8948;51.534;8.262;2023-06-14T08:05:44;3.42;;;1.60;;
17658;SDS011;8948;51.534;8.262;2023-06-14T08:10:45;6.43;;;1.80;;
17658;SDS011;8948;51.534;8.262;2023-06-14T08:15:46;2.10;;;1.58;;
17658;SDS011;8948;51.534;8.262;2023-06-14T08:20:46;7.78;;;1.90;;
17658;SDS011;8948;51.534;8.262;2023-06-14T08:25:47;3.55;;;1.80;;
17658;SDS011;8948;51.534;8.262;2023-06-14T08:30:47;3.72;;;1.45;;
17658;SDS011;8948;51.534;8.262;2023-06-14T08:35:48;4.45;;;1.40;;
17658;SDS011;8948;51.534;8.262;2023-06-14T08:40:50;4.95;;;1.50;;
17658;SDS011;8948;51.534;8.262;2023-06-14T08:45:53;5.57;;;1.60;;
17658;SDS011;8948;51.534;8.262;2023-06-14T08:51:00;3.92;;;1.83;;
17658;SDS011;8948;51.534;8.262;2023-06-14T08:56:04;3.63;;;1.85;;
17658;SDS011;8948;51.534;8.262;2023-06-14T09:01:05;4.07;;;1.73;;
17658;SDS011;8948;51.534;8.262;2023-06-14T09:06:08;5.40;;;1.60;;
17658;SDS011;8948;51.534;8.262;2023-06-14T09:11:13;4.47;;;2.17;;
17658;SDS011;8948;51.534;8.262;2023-06-14T09:16:15;4.40;;;1.90;;
17658;SDS011;8948;51.534;8.262;2023-06-14T09:21:17;2.22;;;1.90;;
17658;SDS011;8948;51.534;8.262;2023-06-14T09:26:18;6.40;;;2.00;;
17658;SDS011;8948;51.534;8.262;2023-06-14T09:31:20;5.13;;;2.13;;
17658;SDS011;8948;51.534;8.262;2023-06-14T09:36:23;2.50;;;1.63;;
17658;SDS011;8948;51.534;8.262;2023-06-14T09:46:39;4.43;;;2.15;;
17658;SDS011;8948;51.534;8.262;2023-06-14T09:51:43;8.02;;;1.83;;
17658;SDS011;8948;51.534;8.262;2023-06-14T09:56:47;2.35;;;1.80;;
17658;SDS011;8948;51.534;8.262;2023-06-14T10:01:51;4.63;;;1.90;;
17658;SDS011;8948;51.534;8.262;2023-06-14T10:06:51;3.03;;;2.05;;
17658;SDS011;8948;51.534;8.262;2023-06-14T10:11:53;6.75;;;1.77;;
17658;SDS011;8948;51.534;8.262;2023-06-14T10:17:05;2.83;;;2.00;;
17658;SDS011;8948;51.534;8.262;2023-06-14T10:22:14;5.72;;;2.13;;
17658;SDS011;8948;51.534;8.262;2023-06-14T10:27:19;6.45;;;1.98;;
17658;SDS011;8948;51.534;8.262;2023-06-14T10:32:24;2.75;;;1.70;;
17658;SDS011;8948;51.534;8.262;2023-06-14T10:37:25;9.07;;;2.30;;
17658;SDS011;8948;51.534;8.262;2023-06-14T10:42:32;3.25;;;2.05;;
17658;SDS011;8948;51.534;8.262;2023-06-14T10:47:33;7.43;;;2.35;;
17658;SDS011;8948;51.534;8.262;2023-06-14T10:52:38;2.63;;;2.00;;
17658;SDS011;8948;51.534;8.262;2023-06-14T10:57:52;7.63;;;2.55;;
17658;SDS011;8948;51.534;8.262;2023-06-14T11:03:43;7.38;;;2.22;;
17658;SDS011;8948;51.534;8.262;2023-06-14T11:14:23;7.05;;;2.40;;
17658;SDS011;8948;51.534;8.262;2023-06-14T11:19:24;3.97;;;2.35;;
17658;SDS011;8948;51.534;8.262;2023-06-14T11:24:25;4.75;;;2.22;;
17658;SDS011;8948;51.534;8.262;2023-06-14T11:29:25;3.67;;;2.40;;
17658;SDS011;8948;51.534;8.262;2023-06-14T11:34:28;7.95;;;2.17;;
17658;SDS011;8948;51.534;8.262;2023-06-14T11:39:29;4.88;;;1.92;;
17658;SDS011;8948;51.534;8.262;2023-06-14T11:44:31;5.00;;;2.10;;
17658;SDS011;8948;51.534;8.262;2023-06-14T11:49:35;3.85;;;2.00;;
17658;SDS011;8948;51.534;8.262;2023-06-14T11:54:36;4.07;;;2.15;;
17658;SDS011;8948;51.534;8.262;2023-06-14T11:59:38;3.75;;;1.80;;
17658;SDS011;8948;51.534;8.262;2023-06-14T12:04:48;3.28;;;2.05;;
17658;SDS011;8948;51.534;8.262;2023-06-14T12:14:59;3.53;;;2.30;;
17658;SDS011;8948;51.534;8.262;2023-06-14T12:20:04;4.20;;;2.28;;
17658;SDS011;8948;51.534;8.262;2023-06-14T12:25:08;4.38;;;2.30;;
17658;SDS011;8948;51.534;8.262;2023-06-14T12:30:09;5.07;;;2.20;;
17658;SDS011;8948;51.534;8.262;2023-06-14T12:35:10;2.33;;;2.05;;
17658;SDS011;8948;51.534;8.262;2023-06-14T12:40:11;2.95;;;1.92;;
17658;SDS011;8948;51.534;8.262;2023-06-14T12:45:12;3.97;;;2.00;;
17658;SDS011;8948;51.534;8.262;2023-06-14T12:50:13;8.25;;;1.92;;
17658;SDS011;8948;51.534;8.262;2023-06-14T12:55:14;3.20;;;1.98;;
17658;SDS011;8948;51.534;8.262;2023-06-14T13:00:15;2.83;;;2.03;;
17658;SDS011;8948;51.534;8.262;2023-06-14T13:05:17;9.90;;;2.20;;
17658;SDS011;8948;51.534;8.262;2023-06-14T13:10:18;3.22;;;2.10;;
17658;SDS011;8948;51.534;8.262;2023-06-14T13:15:18;4.78;;;2.03;;
17658;SDS011;8948;51.534;8.262;2023-06-14T13:20:20;3.55;;;1.98;;
17658;SDS011;8948;51.534;8.262;2023-06-14T13:25:20;4.65;;;1.80;;
17658;SDS011;8948;51.534;8.262;2023-06-14T13:30:22;6.97;;;2.10;;
17658;SDS011;8948;51.534;8.262;2023-06-14T13:35:23;13.65;;;2.63;;
17658;SDS011;8948;51.534;8.262;2023-06-14T13:40:24;8.07;;;2.17;;
17658;SDS011;8948;51.534;8.262;2023-06-14T13:45:25;4.55;;;2.13;;
17658;SDS011;8948;51.534;8.262;2023-06-14T13:50:25;3.10;;;2.00;;
17658;SDS011;8948;51.534;8.262;2023-06-14T13:55:26;6.60;;;2.03;;
17658;SDS011;8948;51.534;8.262;2023-06-14T14:00:26;4.38;;;2.15;;
17658;SDS011;8948;51.534;8.262;2023-06-14T14:05:27;5.47;;;2.03;;
17658;SDS011;8948;51.534;8.262;2023-06-14T14:10:29;6.35;;;1.83;;
17658;SDS011;8948;51.534;8.262;2023-06-14T14:15:30;3.42;;;2.15;;
17658;SDS011;8948;51.534;8.262;2023-06-14T14:20:32;3.28;;;1.85;;
17658;SDS011;8948;51.534;8.262;2023-06-14T14:25:33;6.05;;;2.30;;
17658;SDS011;8948;51.534;8.262;2023-06-14T14:30:33;9.73;;;2.00;;
17658;SDS011;8948;51.534;8.262;2023-06-14T14:35:34;6.35;;;2.03;;
17658;SDS011;8948;51.534;8.262;2023-06-14T14:40:34;2.83;;;1.85;;
17658;SDS011;8948;51.534;8.262;2023-06-14T14:45:35;7.43;;;3.33;;
17658;SDS011;8948;51.534;8.262;2023-06-14T14:50:36;7.05;;;2.90;;
17658;SDS011;8948;51.534;8.262;2023-06-14T14:55:37;4.85;;;1.80;;
17658;SDS011;8948;51.534;8.262;2023-06-14T15:00:39;5.53;;;1.70;;
17658;SDS011;8948;51.534;8.262;2023-06-14T15:05:39;2.92;;;1.85;;
17658;SDS011;8948;51.534;8.262;2023-06-14T15:10:40;3.65;;;1.95;;
17658;SDS011;8948;51.534;8.262;2023-06-14T15:15:41;2.90;;;1.75;;
17658;SDS011;8948;51.534;8.262;2023-06-14T15:20:42;3.33;;;1.90;;
17658;SDS011;8948;51.534;8.262;2023-06-14T15:25:43;6.53;;;1.60;;
17658;SDS011;8948;51.534;8.262;2023-06-14T15:30:43;5.50;;;1.98;;
17658;SDS011;8948;51.534;8.262;2023-06-14T15:35:44;4.30;;;2.03;;
17658;SDS011;8948;51.534;8.262;2023-06-14T15:40:44;7.03;;;1.60;;
17658;SDS011;8948;51.534;8.262;2023-06-14T15:45:45;4.45;;;1.90;;
17658;SDS011;8948;51.534;8.262;2023-06-14T15:50:46;4.25;;;1.50;;
17658;SDS011;8948;51.534;8.262;2023-06-14T15:55:47;5.05;;;1.50;;
17658;SDS011;8948;51.534;8.262;2023-06-14T16:00:47;4.03;;;1.85;;
17658;SDS011;8948;51.534;8.262;2023-06-14T16:05:48;3.25;;;1.77;;
17658;SDS011;8948;51.534;8.262;2023-06-14T16:10:48;3.10;;;1.95;;
17658;SDS011;8948;51.534;8.262;2023-06-14T16:15:49;3.72;;;1.98;;
17658;SDS011;8948;51.534;8.262;2023-06-14T16:20:50;4.03;;;1.70;;
17658;SDS011;8948;51.534;8.262;2023-06-14T16:25:50;2.47;;;1.58;;
17658;SDS011;8948;51.534;8.262;2023-06-14T16:30:51;2.22;;;1.75;;
17658;SDS011;8948;51.534;8.262;2023-06-14T16:35:52;2.03;;;1.73;;
17658;SDS011;8948;51.534;8.262;2023-06-14T16:40:53;3.30;;;1.73;;
17658;SDS011;8948;51.534;8.262;2023-06-14T16:45:53;6.22;;;1.50;;
17658;SDS011;8948;51.534;8.262;2023-06-14T16:50:54;1.75;;;1.35;;
17658;SDS011;8948;51.534;8.262;2023-06-14T16:55:54;4.13;;;1.42;;
17658;SDS011;8948;51.534;8.262;2023-06-14T17:00:55;3.25;;;1.60;;
17658;SDS011;8948;51.534;8.262;2023-06-14T17:05:58;6.35;;;1.98;;
17658;SDS011;8948;51.534;8.262;2023-06-14T17:10:59;1.88;;;1.40;;
17658;SDS011;8948;51.534;8.262;2023-06-14T17:16:00;2.22;;;1.45;;
17658;SDS011;8948;51.534;8.262;2023-06-14T17:21:02;6.35;;;1.63;;
17658;SDS011;8948;51.534;8.262;2023-06-14T17:26:02;6.13;;;1.75;;
17658;SDS011;8948;51.534;8.262;2023-06-14T17:31:03;2.60;;;1.60;;
17658;SDS011;8948;51.534;8.262;2023-06-14T17:36:04;3.92;;;1.70;;
17658;SDS011;8948;51.534;8.262;2023-06-14T17:41:05;2.00;;;1.60;;
17658;SDS011;8948;51.534;8.262;2023-06-14T17:46:08;5.68;;;1.85;;
17658;SDS011;8948;51.534;8.262;2023-06-14T17:51:09;2.80;;;1.48;;
17658;SDS011;8948;51.534;8.262;2023-06-14T17:56:10;6.35;;;1.63;;
17658;SDS011;8948;51.534;8.262;2023-06-14T18:01:11;3.90;;;1.75;;
17658;SDS011;8948;51.534;8.262;2023-06-14T18:06:12;2.17;;;1.52;;
17658;SDS011;8948;51.534;8.262;2023-06-14T18:11:12;4.18;;;1.73;;
17658;SDS011;8948;51.534;8.262;2023-06-14T18:16:13;2.75;;;1.80;;
17658;SDS011;8948;51.534;8.262;2023-06-14T18:21:16;4.93;;;1.67;;
17658;SDS011;8948;51.534;8.262;2023-06-14T18:26:17;7.70;;;1.92;;
17658;SDS011;8948;51.534;8.262;2023-06-14T18:31:17;1.73;;;1.40;;
17658;SDS011;8948;51.534;8.262;2023-06-14T18:36:18;2.47;;;1.70;;
17658;SDS011;8948;51.534;8.262;2023-06-14T18:41:19;4.97;;;1.80;;
17658;SDS011;8948;51.534;8.262;2023-06-14T18:46:21;2.33;;;1.83;;
17658;SDS011;8948;51.534;8.262;2023-06-14T18:51:22;5.70;;;2.22;;
17658;SDS011;8948;51.534;8.262;2023-06-14T18:56:23;3.28;;;2.00;;
17658;SDS011;8948;51.534;8.262;2023-06-14T19:01:23;5.03;;;2.00;;
17658;SDS011;8948;51.534;8.262;2023-06-14T19:06:24;5.38;;;2.50;;
17658;SDS011;8948;51.534;8.262;2023-06-14T19:11:25;4.80;;;2.10;;
17658;SDS011;8948;51.534;8.262;2023-06-14T19:16:26;4.70;;;2.38;;
17658;SDS011;8948;51.534;8.262;2023-06-14T19:21:26;5.00;;;2.10;;
17658;SDS011;8948;51.534;8.262;2023-06-14T19:26:27;5.63;;;2.17;;
17658;SDS011;8948;51.534;8.262;2023-06-14T19:31:29;8.70;;;2.47;;
17658;SDS011;8948;51.534;8.262;2023-06-14T19:36:29;4.97;;;2.47;;
17658;SDS011;8948;51.534;8.262;2023-06-14T19:41:30;6.88;;;2.40;;
17658;SDS011;8948;51.534;8.262;2023-06-14T19:46:31;4.93;;;2.05;;
17658;SDS011;8948;51.534;8.262;2023-06-14T19:51:32;3.30;;;2.10;;
17658;SDS011;8948;51.534;8.262;2023-06-14T19:56:32;3.33;;;2.08;;
17658;SDS011;8948;51.534;8.262;2023-06-14T20:01:33;6.68;;;2.40;;
17658;SDS011;8948;51.534;8.262;2023-06-14T20:06:33;4.40;;;2.35;;
17658;SDS011;8948;51.534;8.262;2023-06-14T20:11:34;3.25;;;2.20;;
17658;SDS011;8948;51.534;8.262;2023-06-14T20:16:35;4.80;;;2.20;;
17658;SDS011;8948;51.534;8.262;2023-06-14T20:21:36;4.88;;;2.13;;
17658;SDS011;8948;51.534;8.262;2023-06-14T20:26:37;5.78;;;2.40;;
17658;SDS011;8948;51.534;8.262;2023-06-14T20:31:38;3.17;;;2.45;;
17658;SDS011;8948;51.534;8.262;2023-06-14T20:36:38;5.30;;;2.55;;
17658;SDS011;8948;51.534;8.262;2023-06-14T20:41:39;2.72;;;2.47;;
17658;SDS011;8948;51.534;8.262;2023-06-14T20:46:39;6.43;;;3.13;;
17658;SDS011;8948;51.534;8.262;2023-06-14T20:51:42;7.63;;;2.65;;
17658;SDS011;8948;51.534;8.262;2023-06-14T20:56:43;7.80;;;3.50;;
17658;SDS011;8948;51.534;8.262;2023-06-14T21:01:43;4.78;;;2.83;;
17658;SDS011;8948;51.534;8.262;2023-06-14T21:06:44;5.72;;;2.88;;
17658;SDS011;8948;51.534;8.262;2023-06-14T21:11:44;6.88;;;2.58;;
17658;SDS011;8948;51.534;8.262;2023-06-14T21:16:45;5.57;;;2.97;;
17658;SDS011;8948;51.534;8.262;2023-06-14T21:21:45;6.28;;;3.53;;
17658;SDS011;8948;51.534;8.262;2023-06-14T21:26:46;7.45;;;4.00;;
17658;SDS011;8948;51.534;8.262;2023-06-14T21:31:46;10.02;;;3.47;;
17658;SDS011;8948;51.534;8.262;2023-06-14T21:36:47;6.10;;;2.97;;
17658;SDS011;8948;51.534;8.262;2023-06-14T21:41:52;6.03;;;2.88;;
17658;SDS011;8948;51.534;8.262;2023-06-14T21:46:54;7.22;;;3.17;;
17658;SDS011;8948;51.534;8.262;2023-06-14T21:51:54;5.95;;;3.20;;
17658;SDS011;8948;51.534;8.262;2023-06-14T21:56:55;7.30;;;3.13;;
17658;SDS011;8948;51.534;8.262;2023-06-14T22:01:56;8.07;;;3.03;;
17658;SDS011;8948;51.534;8.262;2023-06-14T22:06:56;5.50;;;2.83;;
17658;SDS011;8948;51.534;8.262;2023-06-14T22:11:57;5.18;;;3.28;;
17658;SDS011;8948;51.534;8.262;2023-06-14T22:17:00;9.20;;;3.35;;
17658;SDS011;8948;51.534;8.262;2023-06-14T22:22:02;11.10;;;3.10;;
17658;SDS011;8948;51.534;8.262;2023-06-14T22:27:03;9.02;;;3.60;;
17658;SDS011;8948;51.534;8.262;2023-06-14T22:32:05;5.47;;;3.35;;
17658;SDS011;8948;51.534;8.262;2023-06-14T22:37:06;7.70;;;3.63;;
17658;SDS011;8948;51.534;8.262;2023-06-14T22:42:08;9.23;;;3.40;;
17658;SDS011;8948;51.534;8.262;2023-06-14T22:47:08;9.52;;;3.30;;
17658;SDS011;8948;51.534;8.262;2023-06-14T22:52:10;5.13;;;3.42;;
17658;SDS011;8948;51.534;8.262;2023-06-14T22:57:10;5.28;;;3.85;;
17658;SDS011;8948;51.534;8.262;2023-06-14T23:02:17;9.00;;;3.42;;
17658;SDS011;8948;51.534;8.262;2023-06-14T23:07:18;5.95;;;3.60;;
17658;SDS011;8948;51.534;8.262;2023-06-14T23:12:26;5.10;;;3.53;;
17658;SDS011;8948;51.534;8.262;2023-06-14T23:17:29;5.10;;;3.75;;
17658;SDS011;8948;51.534;8.262;2023-06-14T23:22:30;8.18;;;3.58;;
17658;SDS011;8948;51.534;8.262;2023-06-14T23:27:35;5.40;;;3.40;;
17658;SDS011;8948;51.534;8.262;2023-06-14T23:32:37;4.25;;;3.40;;
17658;SDS011;8948;51.534;8.262;2023-06-14T23:37:39;6.22;;;4.30;;
17658;SDS011;8948;51.534;8.262;2023-06-14T23:42:41;9.85;;;3.78;;
17658;SDS011;8948;51.534;8.262;2023-06-14T23:47:41;8.85;;;3.80;;
17658;SDS011;8948;51.534;8.262;2023-06-14T23:52:42;7.13;;;3.47;;
17658;SDS011;8948;51.534;8.262;2023-06-14T23:57:43;6.07;;;3.38;;
